Time;durP1;ratioP1;P1;durP2;ratioP2;P2;SDS_P1;SDS_P2;PMS_P1;PMS_P2;Temp;Humidity;BMP_temperature;BMP_pressure;BME280_temperature;BME280_humidity;BME280_pressure;Samples;Min_cycle;Max_cycle;Signal;HPM_P1;HPM_P2
2021/07/14 00:00:31;;;;;;;1.97;1.33;;;;;;;12.86;100.00;95432.19;5010755;28;20416;-73
2021/07/14 00:02:58;;;;;;;2.97;0.93;;;;;;;12.84;100.00;95430.56;5010823;28;20424;-73
2021/07/14 00:05:24;;;;;;;1.75;0.85;;;;;;;12.79;100.00;95416.25;5010991;28;20413;-73
2021/07/14 00:07:51;;;;;;;2.57;0.80;;;;;;;12.77;100.00;95416.38;5013277;28;20419;-73
2021/07/14 00:10:18;;;;;;;1.67;0.98;;;;;;;12.78;100.00;95414.59;5014417;28;20451;-73
2021/07/14 00:12:57;;;;;;;6.57;1.17;;;;;;;12.72;100.00;95415.06;5014411;28;20435;-73
2021/07/14 00:23:13;;;;;;;4.70;1.60;;;;;;;12.68;100.00;95378.13;5014285;28;20894;-73
2021/07/14 00:25:38;;;;;;;1.38;1.17;;;;;;;12.77;100.00;95387.78;5013923;28;20436;-74
2021/07/14 00:28:04;;;;;;;3.83;1.42;;;;;;;12.84;100.00;95388.16;5014284;28;20416;-73
2021/07/14 00:30:31;;;;;;;19.05;2.40;;;;;;;12.75;100.00;95386.25;5014005;28;20416;-74
2021/07/14 00:32:56;;;;;;;2.40;1.13;;;;;;;12.86;100.00;95370.66;5012914;28;20424;-74
2021/07/14 00:35:22;;;;;;;1.67;1.37;;;;;;;12.91;100.00;95367.72;5013922;28;20420;-74
2021/07/14 00:37:49;;;;;;;3.57;1.50;;;;;;;12.95;100.00;95380.34;5014135;28;20413;-73
2021/07/14 00:40:15;;;;;;;1.52;1.30;;;;;;;12.98;100.00;95376.69;5013890;28;20413;-73
2021/07/14 00:42:41;;;;;;;3.53;1.70;;;;;;;12.99;100.00;95368.75;5013918;28;20497;-73
2021/07/14 00:45:07;;;;;;;14.60;1.83;;;;;;;12.88;100.00;95376.56;5013779;28;20413;-73
2021/07/14 00:47:35;;;;;;;1.30;1.20;;;;;;;12.87;100.00;95374.94;5012252;28;20425;-74
2021/07/14 00:50:03;;;;;;;12.35;1.48;;;;;;;12.72;100.00;95370.91;5013793;28;20436;-73
2021/07/14 00:52:28;;;;;;;4.75;1.45;;;;;;;12.71;100.00;95366.66;5013971;28;20567;-73
2021/07/14 00:54:57;;;;;;;10.47;1.60;;;;;;;12.53;100.00;95354.16;5013705;28;20853;-73
2021/07/14 00:57:25;;;;;;;1.80;1.10;;;;;;;12.58;100.00;95338.22;5013483;28;20449;-73
2021/07/14 00:59:51;;;;;;;9.30;1.40;;;;;;;12.50;100.00;95312.84;5012328;28;20429;-73
2021/07/14 01:02:16;;;;;;;12.52;1.50;;;;;;;12.34;100.00;95305.38;5013695;28;20417;-73
2021/07/14 01:04:47;;;;;;;28.58;2.03;;;;;;;12.21;100.00;95302.09;5013556;28;20456;-73
2021/07/14 01:07:17;;;;;;;13.05;1.42;;;;;;;12.16;100.00;95293.81;5011934;28;20424;-73
2021/07/14 01:09:47;;;;;;;11.63;1.60;;;;;;;12.16;100.00;95308.56;5013405;28;20922;-73
2021/07/14 01:12:20;;;;;;;3.08;1.17;;;;;;;12.34;100.00;95325.34;5012182;28;20431;-73
2021/07/14 01:14:52;;;;;;;13.43;1.43;;;;;;;12.46;100.00;95318.34;5013480;28;20443;-73
2021/07/14 01:17:19;;;;;;;4.25;1.15;;;;;;;12.55;100.00;95328.06;5010689;28;20421;-73
2021/07/14 01:20:06;;;;;;;5.60;1.50;;;;;;;12.61;100.00;95348.38;5011955;28;20452;-73
2021/07/14 01:22:49;;;;;;;3.50;1.75;;;;;;;12.65;100.00;95377.53;5013116;28;20437;-73
2021/07/14 01:25:28;;;;;;;3.90;1.60;;;;;;;12.67;100.00;95396.41;5012922;28;20898;-73
2021/07/14 01:27:58;;;;;;;2.78;2.03;;;;;;;12.64;100.00;95391.44;5011865;28;20428;-73
2021/07/14 01:30:24;;;;;;;2.33;1.75;;;;;;;12.49;100.00;95389.09;5011659;28;20413;-73
2021/07/14 01:32:52;;;;;;;2.88;2.28;;;;;;;12.24;100.00;95376.34;5012977;28;20444;-73
2021/07/14 01:35:25;;;;;;;3.08;1.90;;;;;;;12.17;100.00;95385.53;5012762;28;20416;-73
2021/07/14 01:37:52;;;;;;;2.55;1.65;;;;;;;12.24;100.00;95389.31;5011700;28;20436;-73
2021/07/14 01:40:20;;;;;;;2.00;1.75;;;;;;;12.26;100.00;95397.78;5012821;28;20412;-73
2021/07/14 01:42:51;;;;;;;2.70;1.50;;;;;;;12.35;100.00;95392.75;5011580;28;20507;-73
2021/07/14 01:45:18;;;;;;;3.30;1.60;;;;;;;12.37;100.00;95399.59;5011223;28;20471;-73
2021/07/14 01:47:47;;;;;;;1.85;1.63;;;;;;;12.20;100.00;95408.63;5012640;28;20933;-73
2021/07/14 01:50:13;;;;;;;1.65;1.40;;;;;;;12.17;100.00;95420.09;5011390;28;20436;-73
2021/07/14 01:52:40;;;;;;;8.10;1.10;;;;;;;12.34;100.00;95426.59;5012657;28;20502;-73
2021/07/14 01:55:07;;;;;;;5.03;1.15;;;;;;;12.24;100.00;95441.25;5012461;28;20512;-73
2021/07/14 01:57:36;;;;;;;4.40;1.20;;;;;;;12.26;100.00;95440.16;5012583;28;20416;-73
2021/07/14 02:00:04;;;;;;;1.65;1.30;;;;;;;12.15;100.00;95436.72;5052000;23;20440;-76
2021/07/14 02:02:34;;;;;;;1.65;1.20;;;;;;;12.22;100.00;95425.75;5012375;28;20425;-76
2021/07/14 02:05:01;;;;;;;2.50;1.20;;;;;;;12.29;100.00;95424.38;5011032;28;20417;-76
2021/07/14 02:07:27;;;;;;;2.95;1.30;;;;;;;12.32;100.00;95428.50;5011873;28;20986;-76
2021/07/14 02:09:55;;;;;;;2.17;1.15;;;;;;;12.34;100.00;95427.44;5012221;28;20421;-76
2021/07/14 02:12:23;;;;;;;2.00;1.40;;;;;;;12.42;100.00;95423.44;5012225;28;20834;-76
2021/07/14 02:14:52;;;;;;;2.00;1.40;;;;;;;12.37;100.00;95416.00;5010854;28;20448;-76
2021/07/14 02:17:21;;;;;;;1.75;1.30;;;;;;;12.26;100.00;95414.19;5011736;28;20408;-76
2021/07/14 02:19:51;;;;;;;2.20;1.40;;;;;;;12.10;100.00;95409.34;5011890;28;20434;-76
2021/07/14 02:22:17;;;;;;;2.65;1.70;;;;;;;11.98;100.00;95402.47;5012049;28;20417;-76
2021/07/14 02:24:43;;;;;;;2.95;1.38;;;;;;;11.80;100.00;95398.59;5011993;28;20928;-76
2021/07/14 02:27:10;;;;;;;3.60;1.63;;;;;;;11.55;100.00;95400.38;5011643;28;20523;-76
2021/07/14 02:29:37;;;;;;;2.47;1.50;;;;;;;11.58;100.00;95397.56;5011553;28;20421;-76
2021/07/14 02:32:03;;;;;;;2.08;1.67;;;;;;;11.57;100.00;95398.53;5010426;28;20470;-76
2021/07/14 02:34:28;;;;;;;7.45;1.45;;;;;;;11.73;100.00;95389.63;5010364;28;20456;-76
2021/07/14 02:36:57;;;;;;;3.40;1.60;;;;;;;11.82;100.00;95384.56;5010204;28;20464;-76
2021/07/14 02:39:24;;;;;;;4.53;1.92;;;;;;;11.93;100.00;95388.16;5010315;28;20930;-76
2021/07/14 02:41:56;;;;;;;1.50;1.40;;;;;;;12.06;100.00;95394.13;5011519;28;20496;-76
2021/07/14 02:44:25;;;;;;;2.70;1.60;;;;;;;12.13;100.00;95403.09;5010288;28;20427;-76
2021/07/14 02:46:55;;;;;;;2.80;1.90;;;;;;;12.07;100.00;95400.94;5011123;28;20503;-76
2021/07/14 02:49:25;;;;;;;2.40;1.65;;;;;;;12.04;100.00;95393.38;5010175;28;20512;-76
2021/07/14 02:51:51;;;;;;;6.88;1.70;;;;;;;12.17;100.00;95391.53;5011748;28;20822;-76
2021/07/14 02:54:22;;;;;;;2.40;1.58;;;;;;;12.14;100.00;95389.16;5011303;28;20421;-76
2021/07/14 02:56:50;;;;;;;2.40;2.00;;;;;;;12.09;100.00;95391.28;5009972;28;20424;-76
2021/07/14 02:59:19;;;;;;;2.10;1.90;;;;;;;12.22;100.00;95401.56;5009860;28;20479;-76
2021/07/14 03:01:46;;;;;;;2.63;2.03;;;;;;;12.29;100.00;95398.41;5011557;28;20420;-76
2021/07/14 03:04:12;;;;;;;2.45;1.63;;;;;;;12.30;100.00;95404.41;5011751;28;20474;-76
2021/07/14 03:06:38;;;;;;;6.05;2.22;;;;;;;12.31;100.00;95403.47;5010874;28;20428;-76
2021/07/14 03:09:06;;;;;;;5.63;2.20;;;;;;;12.17;100.00;95399.31;5011162;28;20467;-76
2021/07/14 03:11:37;;;;;;;2.25;2.05;;;;;;;11.99;100.00;95392.91;5011175;28;20522;-76
2021/07/14 03:14:04;;;;;;;4.32;2.03;;;;;;;12.08;100.00;95394.81;5011023;28;20420;-76
2021/07/14 03:16:31;;;;;;;9.70;2.50;;;;;;;12.08;100.00;95395.63;5010767;28;20409;-76
2021/07/14 03:18:57;;;;;;;5.97;2.40;;;;;;;12.11;100.00;95404.97;5009690;28;20424;-76
2021/07/14 03:21:23;;;;;;;2.57;2.10;;;;;;;12.19;100.00;95402.63;5011343;28;20420;-76
2021/07/14 03:23:49;;;;;;;3.50;2.78;;;;;;;12.06;100.00;95397.53;5011027;28;20452;-77
2021/07/14 03:26:16;;;;;;;3.13;2.50;;;;;;;12.16;100.00;95391.63;5010638;28;20428;-77
2021/07/14 03:28:43;;;;;;;2.63;2.08;;;;;;;12.14;100.00;95399.56;5011526;28;20441;-76
2021/07/14 03:31:09;;;;;;;3.25;2.47;;;;;;;12.16;100.00;95396.81;5010562;28;20428;-77
2021/07/14 03:33:35;;;;;;;4.32;2.30;;;;;;;12.10;100.00;95406.75;5011329;28;20416;-77
2021/07/14 03:36:07;;;;;;;5.75;2.63;;;;;;;11.98;100.00;95402.47;5010795;28;20417;-77
2021/07/14 03:38:33;;;;;;;4.03;2.35;;;;;;;11.89;100.00;95400.53;5010905;28;20756;-77
2021/07/14 03:41:00;;;;;;;7.72;2.60;;;;;;;11.68;100.00;95400.34;5012433;28;20507;-77
2021/07/14 03:43:27;;;;;;;2.67;2.40;;;;;;;11.66;100.00;95399.59;5014896;28;20803;-76
2021/07/14 03:45:56;;;;;;;4.60;2.50;;;;;;;11.70;100.00;95392.44;5014551;28;20982;-77
2021/07/14 03:48:22;;;;;;;4.38;2.63;;;;;;;11.73;100.00;95390.44;5014855;28;20425;-76
2021/07/14 03:50:49;;;;;;;5.50;2.63;;;;;;;11.74;100.00;95391.25;5014771;28;20433;-76
2021/07/14 03:53:17;;;;;;;3.60;2.40;;;;;;;11.70;100.00;95395.84;5014733;28;20510;-76
2021/07/14 03:55:42;;;;;;;2.95;2.20;;;;;;;11.69;100.00;95403.75;5013065;28;20432;-76
2021/07/14 03:58:09;;;;;;;3.42;2.33;;;;;;;11.56;100.00;95386.47;5014628;28;20421;-76
2021/07/14 04:00:35;;;;;;;9.88;2.97;;;;;;;11.55;100.00;95392.59;5014403;28;20416;-77
2021/07/14 04:03:03;;;;;;;6.22;2.15;;;;;;;11.56;100.00;95390.84;5014535;28;20450;-76
2021/07/14 04:05:30;;;;;;;3.17;2.43;;;;;;;11.59;100.00;95388.03;5014194;28;20919;-76
2021/07/14 04:07:56;;;;;;;6.73;2.13;;;;;;;11.57;100.00;95393.34;5014464;28;20414;-76
2021/07/14 04:10:22;;;;;;;3.00;2.17;;;;;;;11.63;100.00;95390.28;5013013;28;20482;-76
2021/07/14 04:12:49;;;;;;;2.77;1.87;;;;;;;11.73;100.00;95400.00;5014437;28;20425;-76
2021/07/14 04:15:14;;;;;;;2.05;1.73;;;;;;;11.74;100.00;95414.59;5014301;28;20886;-76
2021/07/14 04:17:39;;;;;;;2.83;1.95;;;;;;;11.87;100.00;95407.63;5014263;28;20431;-76
2021/07/14 04:20:08;;;;;;;2.50;1.90;;;;;;;12.02;100.00;95408.25;5014218;28;20409;-76
2021/07/14 04:22:33;;;;;;;7.57;2.20;;;;;;;11.93;100.00;95414.13;5014010;28;20462;-77
2021/07/14 04:24:59;;;;;;;3.40;2.25;;;;;;;11.95;100.00;95405.28;5014067;28;20452;-77
2021/07/14 04:27:25;;;;;;;3.90;2.00;;;;;;;11.90;100.00;95397.00;5013738;28;20425;-76
2021/07/14 04:29:51;;;;;;;3.60;1.80;;;;;;;11.80;100.00;95403.78;5013825;28;20412;-76
2021/07/14 04:32:16;;;;;;;2.72;1.88;;;;;;;11.81;100.00;95393.28;5012740;28;20432;-76
2021/07/14 04:34:41;;;;;;;2.40;1.93;;;;;;;11.74;100.00;95392.09;5014103;28;20415;-76
2021/07/14 04:37:08;;;;;;;2.40;1.50;;;;;;;11.65;100.00;95392.78;5012524;28;20793;-76
2021/07/14 04:39:33;;;;;;;6.13;1.75;;;;;;;11.57;100.00;95392.50;5013774;28;20440;-76
2021/07/14 04:41:59;;;;;;;1.87;1.43;;;;;;;11.52;100.00;95408.38;5013848;28;20778;-76
2021/07/14 04:44:47;;;;;;;2.65;1.60;;;;;;;11.58;100.00;95396.75;5013839;28;20932;-76
2021/07/14 04:47:12;;;;;;;2.60;1.40;;;;;;;11.58;100.00;95391.56;5013448;28;20428;-76
2021/07/14 04:49:38;;;;;;;1.97;1.47;;;;;;;11.56;100.00;95383.88;5013661;28;20421;-76
2021/07/14 04:52:04;;;;;;;7.50;1.40;;;;;;;11.61;100.00;95388.75;5013473;28;20417;-77
2021/07/14 04:54:31;;;;;;;2.40;1.60;;;;;;;11.65;100.00;95394.53;5013563;28;20463;-76
2021/07/14 04:56:56;;;;;;;1.77;1.60;;;;;;;11.66;100.00;95398.78;5013571;28;20835;-76
2021/07/14 04:59:21;;;;;;;2.00;1.80;;;;;;;11.73;100.00;95397.41;5012064;28;20511;-76
2021/07/14 05:01:47;;;;;;;4.97;1.80;;;;;;;11.80;100.00;95391.66;5012514;28;20459;-77
2021/07/14 05:04:12;;;;;;;3.10;2.00;;;;;;;11.83;100.00;95390.59;5013483;28;20474;-77
2021/07/14 05:06:38;;;;;;;3.67;2.15;;;;;;;11.71;100.00;95389.72;5011655;28;20437;-77
2021/07/14 05:09:04;;;;;;;3.63;2.10;;;;;;;11.62;100.00;95383.44;5013164;28;20421;-76
2021/07/14 05:11:30;;;;;;;2.70;2.10;;;;;;;11.71;100.00;95397.50;5013347;28;20458;-76
2021/07/14 05:13:56;;;;;;;4.05;1.90;;;;;;;11.71;100.00;95396.66;5013024;28;20474;-76
2021/07/14 05:16:21;;;;;;;2.30;2.10;;;;;;;11.73;100.00;95389.63;5011812;28;20802;-77
2021/07/14 05:18:47;;;;;;;3.50;2.22;;;;;;;11.72;100.00;95387.97;5004764;28;20421;-76
2021/07/14 05:21:12;;;;;;;4.07;2.53;;;;;;;11.80;100.00;95391.66;4999748;28;20503;-76
2021/07/14 05:23:37;;;;;;;2.60;2.07;;;;;;;11.83;100.00;95391.47;4996344;28;20414;-76
2021/07/14 05:26:03;;;;;;;3.33;2.60;;;;;;;11.92;100.00;95386.53;4993433;28;20814;-75
2021/07/14 05:28:29;;;;;;;2.50;2.30;;;;;;;11.83;100.00;95386.25;4992191;28;20476;-76
2021/07/14 05:30:55;;;;;;;2.30;1.90;;;;;;;11.81;100.00;95387.28;4993137;28;20775;-75
2021/07/14 05:33:20;;;;;;;4.75;2.25;;;;;;;11.92;100.00;95389.13;4993343;28;20406;-76
2021/07/14 05:35:46;;;;;;;3.37;2.37;;;;;;;11.80;100.00;95380.44;4993240;28;20919;-75
2021/07/14 05:38:19;;;;;;;2.22;2.00;;;;;;;11.87;100.00;95389.47;4993414;28;20428;-76
2021/07/14 05:40:44;;;;;;;4.53;2.50;;;;;;;11.84;100.00;95393.09;4993371;28;21117;-76
2021/07/14 05:43:10;;;;;;;2.65;2.45;;;;;;;11.87;100.00;95399.84;4993219;28;20453;-75
2021/07/14 05:45:36;;;;;;;4.37;2.17;;;;;;;12.00;100.00;95392.78;4993082;28;20418;-77
2021/07/14 05:48:02;;;;;;;3.15;2.42;;;;;;;12.02;100.00;95390.91;4999587;28;20412;-77
2021/07/14 05:50:28;;;;;;;4.18;2.58;;;;;;;12.11;100.00;95395.41;5011642;28;20972;-77
2021/07/14 05:52:54;;;;;;;3.90;2.45;;;;;;;12.21;100.00;95386.94;5012623;28;20906;-77
2021/07/14 05:55:20;;;;;;;3.53;2.43;;;;;;;12.14;100.00;95394.34;5012362;28;20420;-77
2021/07/14 05:57:45;;;;;;;2.87;2.30;;;;;;;12.20;100.00;95388.72;5012572;28;20455;-77
2021/07/14 06:00:12;;;;;;;2.67;2.33;;;;;;;12.32;100.00;95392.16;5012341;28;20420;-77
2021/07/14 06:02:38;;;;;;;3.35;2.80;;;;;;;12.25;100.00;95384.00;5012250;28;20420;-77
2021/07/14 06:05:05;;;;;;;3.17;2.33;;;;;;;12.17;100.00;95399.31;5011874;28;20913;-74
2021/07/14 06:07:30;;;;;;;2.83;2.30;;;;;;;12.22;100.00;95396.38;5011051;28;20421;-76
2021/07/14 06:09:56;;;;;;;2.60;2.23;;;;;;;12.39;100.00;95402.91;5011828;28;20435;-73
2021/07/14 06:12:21;;;;;;;3.30;2.37;;;;;;;12.34;100.00;95405.84;5011083;28;20416;-76
2021/07/14 06:14:49;;;;;;;4.10;2.47;;;;;;;12.35;100.00;95405.72;5004406;28;20422;-76
2021/07/14 06:17:14;;;;;;;4.97;2.50;;;;;;;12.29;100.00;95394.97;4992257;28;20422;-76
2021/07/14 06:19:41;;;;;;;2.38;2.17;;;;;;;12.38;100.00;95399.47;5012037;28;20944;-73
2021/07/14 06:22:06;;;;;;;2.65;2.10;;;;;;;12.48;100.00;95399.59;5011788;28;20448;-73
2021/07/14 06:24:32;;;;;;;3.30;1.90;;;;;;;12.60;100.00;95403.84;5010501;28;20463;-73
2021/07/14 06:26:57;;;;;;;4.73;2.20;;;;;;;12.57;100.00;95406.72;5011554;28;20424;-73
2021/07/14 06:29:23;;;;;;;3.63;2.33;;;;;;;12.48;100.00;95408.22;5009229;28;20420;-73
2021/07/14 06:31:49;;;;;;;2.57;2.10;;;;;;;12.49;100.00;95414.22;4993631;28;20836;-75
2021/07/14 06:34:14;;;;;;;2.53;2.33;;;;;;;12.30;100.00;95415.63;4993345;28;20417;-76
2021/07/14 06:36:41;;;;;;;2.73;2.20;;;;;;;12.34;100.00;95417.03;4993372;28;20410;-77
2021/07/14 06:39:06;;;;;;;3.03;2.20;;;;;;;12.43;100.00;95419.91;4992665;28;20453;-76
2021/07/14 06:41:32;;;;;;;2.53;2.30;;;;;;;12.41;100.00;95425.19;4993903;28;20847;-74
2021/07/14 06:44:01;;;;;;;2.63;2.43;;;;;;;12.59;100.00;95421.22;5012027;28;20417;-77
2021/07/14 06:46:27;;;;;;;2.60;2.10;;;;;;;12.73;100.00;95420.16;5011424;28;20910;-75
2021/07/14 06:48:52;;;;;;;4.57;2.28;;;;;;;12.77;100.00;95416.38;5010960;28;20432;-75
2021/07/14 06:51:18;;;;;;;2.30;2.00;;;;;;;12.86;100.00;95420.03;5011544;28;20429;-74
2021/07/14 06:53:45;;;;;;;2.50;2.30;;;;;;;12.82;100.00;95408.22;5011476;28;20423;-75
2021/07/14 06:56:10;;;;;;;4.10;2.58;;;;;;;12.86;100.00;95416.59;5011218;28;20413;-76
2021/07/14 06:58:37;;;;;;;3.17;2.53;;;;;;;12.92;100.00;95416.16;5010241;28;20744;-76
2021/07/14 07:01:03;;;;;;;4.27;2.50;;;;;;;13.02;100.00;95419.69;5004403;28;20422;-76
2021/07/14 07:03:29;;;;;;;4.10;2.97;;;;;;;12.90;100.00;95412.81;5007256;28;20417;-76
2021/07/14 07:05:56;;;;;;;3.38;2.90;;;;;;;12.90;100.00;95408.44;5009594;28;21181;-75
2021/07/14 07:08:22;;;;;;;6.53;3.37;;;;;;;13.01;100.00;95413.63;5011657;28;20495;-75
2021/07/14 07:10:49;;;;;;;6.80;3.90;;;;;;;13.18;100.00;95409.72;5011281;28;20423;-76
2021/07/14 07:13:18;;;;;;;8.65;3.90;;;;;;;13.15;100.00;95411.75;5011087;28;20447;-76
2021/07/14 07:15:44;;;;;;;5.10;3.20;;;;;;;13.14;100.00;95408.31;5010954;28;20412;-77
2021/07/14 07:18:09;;;;;;;6.88;2.90;;;;;;;13.03;100.00;95408.34;5010746;28;20448;-75
2021/07/14 07:20:35;;;;;;;3.60;2.60;;;;;;;13.10;100.00;95406.91;5010705;28;20814;-75
2021/07/14 07:23:00;;;;;;;4.47;3.13;;;;;;;13.11;100.00;95407.72;5011935;28;20845;-77
2021/07/14 07:25:26;;;;;;;4.73;2.67;;;;;;;13.18;100.00;95401.09;5009604;28;20420;-75
2021/07/14 07:27:55;;;;;;;4.05;2.95;;;;;;;13.13;100.00;95403.25;5010193;28;20787;-76
2021/07/14 07:30:20;;;;;;;6.68;2.70;;;;;;;13.15;100.00;95398.75;5010614;28;20417;-75
2021/07/14 07:32:46;;;;;;;4.78;2.70;;;;;;;13.11;100.00;95398.16;5011649;28;20427;-78
2021/07/14 07:35:12;;;;;;;2.92;2.47;;;;;;;13.10;100.00;95396.50;5011972;28;20417;-78
2021/07/14 07:37:37;;;;;;;3.40;2.28;;;;;;;13.15;100.00;95398.75;5011868;28;20793;-77
2021/07/14 07:40:05;;;;;;;3.78;2.78;;;;;;;13.18;100.00;95401.94;5011165;28;20409;-76
2021/07/14 07:42:30;;;;;;;4.32;2.35;;;;;;;13.19;100.00;95395.78;5013153;28;20428;-76
2021/07/14 07:44:57;;;;;;;6.00;2.13;;;;;;;13.20;100.00;95396.59;5011258;28;20425;-77
2021/07/14 07:47:23;;;;;;;5.32;2.22;;;;;;;13.25;100.00;95403.13;5010420;28;20437;-77
2021/07/14 07:49:49;;;;;;;4.05;2.60;;;;;;;13.35;100.00;95402.38;5009893;28;20420;-76
2021/07/14 07:52:18;;;;;;;3.67;2.95;;;;;;;13.33;100.00;95402.53;5010394;28;20953;-76
2021/07/14 07:54:44;;;;;;;3.30;2.80;;;;;;;13.40;100.00;95408.06;5010890;28;20940;-78
2021/07/14 07:57:09;;;;;;;3.55;2.50;;;;;;;13.52;100.00;95417.47;5012265;28;20444;-75
2021/07/14 07:59:35;;;;;;;6.20;2.67;;;;;;;13.51;100.00;95419.25;5011072;28;20458;-75
2021/07/14 08:02:02;;;;;;;3.28;2.40;;;;;;;13.58;100.00;95419.59;5010898;28;20434;-78
2021/07/14 08:04:28;;;;;;;3.93;2.70;;;;;;;13.60;100.00;95419.47;5010913;28;20497;-77
2021/07/14 08:06:53;;;;;;;4.00;2.80;;;;;;;13.60;100.00;95422.06;5010497;28;20424;-77
2021/07/14 08:09:19;;;;;;;5.30;3.07;;;;;;;13.66;100.00;95432.00;5009436;28;20421;-76
2021/07/14 08:11:45;;;;;;;4.03;2.80;;;;;;;13.83;100.00;95428.88;5010576;28;20491;-76
2021/07/14 08:14:10;;;;;;;3.60;2.70;;;;;;;13.91;100.00;95426.47;5010688;28;20421;-77
2021/07/14 08:16:36;;;;;;;2.77;2.33;;;;;;;13.86;100.00;95418.19;5010145;28;20417;-75
2021/07/14 08:19:02;;;;;;;3.80;2.70;;;;;;;13.91;100.00;95428.25;5010426;28;20978;-75
2021/07/14 08:21:28;;;;;;;5.85;2.70;;;;;;;13.99;100.00;95434.47;5010856;28;20419;-75
2021/07/14 08:23:53;;;;;;;3.40;2.65;;;;;;;14.08;100.00;95440.69;5010917;28;20784;-76
2021/07/14 08:26:19;;;;;;;3.90;2.90;;;;;;;14.13;100.00;95440.34;5010910;28;20424;-76
2021/07/14 08:28:44;;;;;;;5.57;2.60;;;;;;;14.24;100.00;95454.13;5014165;28;20421;-75
2021/07/14 08:31:10;;;;;;;2.90;2.57;;;;;;;14.37;100.00;95459.13;5013897;28;20416;-76
2021/07/14 08:33:35;;;;;;;4.85;2.30;;;;;;;14.44;100.00;95481.13;5016037;28;20459;-78
2021/07/14 08:36:03;;;;;;;4.05;2.38;;;;;;;14.49;100.00;95480.75;5013016;28;20434;-76
2021/07/14 08:38:29;;;;;;;4.40;2.60;;;;;;;14.58;100.00;95485.22;5015765;28;20428;-79
2021/07/14 08:40:57;;;;;;;3.30;2.90;;;;;;;14.52;100.00;95486.56;5016126;28;20512;-79
2021/07/14 08:43:31;;;;;;;5.88;3.13;;;;;;;14.54;100.00;95491.66;5017288;28;20787;-79
2021/07/14 08:45:58;;;;;;;5.88;3.50;;;;;;;14.49;100.00;95486.81;5015390;28;20948;-79
2021/07/14 08:48:25;;;;;;;5.72;3.00;;;;;;;14.44;100.00;95475.09;5006246;28;20433;-76
2021/07/14 08:50:52;;;;;;;5.23;2.90;;;;;;;14.49;100.00;95463.34;4996273;28;20923;-77
2021/07/14 08:53:20;;;;;;;3.70;2.50;;;;;;;14.55;100.00;95459.41;4997146;28;20915;-78
2021/07/14 08:55:48;;;;;;;7.45;2.83;;;;;;;14.62;100.00;95457.97;4996908;28;20509;-77
2021/07/14 08:58:14;;;;;;;4.63;2.20;;;;;;;14.62;100.00;95457.13;4994953;28;20438;-76
2021/07/14 09:05:42;;;;;;;2.90;2.17;;;;;;;14.69;100.00;95485.16;4994029;28;20513;-77
2021/07/14 09:08:08;;;;;;;3.67;2.33;;;;;;;14.86;100.00;95491.56;4994842;28;21023;-76
2021/07/14 09:10:35;;;;;;;5.00;3.10;;;;;;;14.81;100.00;95490.31;4994388;28;20421;-78
2021/07/14 09:13:02;;;;;;;5.85;2.55;;;;;;;14.91;100.00;95496.41;4994457;28;20422;-76
2021/07/14 09:15:31;;;;;;;5.30;2.50;;;;;;;14.94;100.00;95498.72;5009595;28;20831;-77
2021/07/14 09:17:58;;;;;;;4.53;2.65;;;;;;;14.93;100.00;95497.91;5014915;28;20491;-77
2021/07/14 09:20:26;;;;;;;6.45;3.38;;;;;;;14.90;100.00;95492.13;4993417;28;20414;-77
2021/07/14 09:23:02;;;;;;;5.65;2.95;;;;;;;14.99;100.00;95501.78;4996051;28;20411;-77
2021/07/14 09:25:28;;;;;;;8.15;3.28;;;;;;;15.11;100.00;95497.31;4993132;28;20457;-76
2021/07/14 09:27:58;;;;;;;6.28;2.90;;;;;;;15.19;100.00;95493.06;4994635;28;20440;-76
2021/07/14 09:30:29;;;;;;;6.00;2.70;;;;;;;15.19;100.00;95493.06;5016131;23;20531;-76
2021/07/14 09:32:59;;;;;;;3.28;2.35;;;;;;;15.34;100.00;95485.72;5025849;28;20412;-77
2021/07/14 09:35:26;;;;;;;3.33;2.38;;;;;;;15.47;100.00;95481.09;5024953;28;20451;-78
2021/07/14 09:37:52;;;;;;;4.47;2.47;;;;;;;15.52;100.00;95474.66;5027270;28;20771;-77
2021/07/14 09:40:19;;;;;;;5.80;2.50;;;;;;;15.57;100.00;95481.09;5021773;28;20413;-79
2021/07/14 09:42:55;;;;;;;4.07;2.45;;;;;;;15.70;100.00;95478.28;5014989;28;20440;-77
2021/07/14 09:45:45;;;;;;;3.00;2.22;;;;;;;15.69;100.00;95474.88;5016121;28;20478;-78
2021/07/14 09:48:12;;;;;;;6.10;2.40;;;;;;;15.67;100.00;95478.56;5016602;28;20429;-77
2021/07/14 09:51:09;;;;;;;2.67;2.13;;;;;;;15.84;100.00;95477.09;5024839;23;20444;-77
2021/07/14 09:56:56;;;;;;;12.88;2.00;;;;;;;16.00;99.66;95473.94;4954635;29;20426;-77
2021/07/14 09:59:28;;;;;;;3.73;1.90;;;;;;;16.12;97.38;95478.88;5002760;28;20435;-77
2021/07/14 10:01:57;;;;;;;2.83;1.88;;;;;;;16.29;98.14;95481.78;5014964;28;20420;-78
2021/07/14 10:04:35;;;;;;;3.47;1.57;;;;;;;16.37;94.83;95490.56;5013694;28;20424;-77
2021/07/14 10:07:05;;;;;;;5.07;1.73;;;;;;;16.34;93.38;95488.22;5013462;28;20421;-78
2021/07/14 10:09:31;;;;;;;2.42;1.52;;;;;;;16.53;92.97;95474.31;5014567;28;20431;-78
2021/07/14 10:12:31;;;;;;;3.63;1.27;;;;;;;16.62;91.63;95483.94;5015845;28;20413;-78
2021/07/14 10:14:58;;;;;;;1.80;1.33;;;;;;;16.69;90.00;95484.22;5013518;28;20471;-78
2021/07/14 10:17:39;;;;;;;1.40;1.25;;;;;;;17.00;89.93;95477.00;5012271;28;20918;-78
2021/07/14 10:20:27;;;;;;;2.05;1.48;;;;;;;17.00;85.73;95484.84;5013959;28;20516;-78
2021/07/14 10:22:55;;;;;;;6.13;1.40;;;;;;;17.04;85.52;95473.13;5013685;28;20837;-78
2021/07/14 10:25:21;;;;;;;2.30;1.20;;;;;;;16.89;86.77;95477.16;5012285;28;20432;-78
2021/07/14 10:27:47;;;;;;;2.40;1.20;;;;;;;17.03;83.88;95468.88;5013267;28;20498;-78
2021/07/14 10:30:15;;;;;;;2.47;1.15;;;;;;;17.06;85.68;95479.06;5012554;28;20416;-78
2021/07/14 10:32:42;;;;;;;2.80;1.20;;;;;;;17.14;82.29;95480.94;5011616;28;20501;-78
2021/07/14 10:35:10;;;;;;;1.88;0.80;;;;;;;17.11;82.28;95483.84;5013140;28;20409;-78
2021/07/14 10:37:37;;;;;;;1.50;0.90;;;;;;;17.05;80.14;95489.66;5011832;28;20417;-78
2021/07/14 10:40:06;;;;;;;1.05;0.90;;;;;;;17.17;80.53;95493.75;5012971;28;20470;-78
2021/07/14 10:42:33;;;;;;;0.88;0.80;;;;;;;17.28;80.93;95493.56;5013042;28;20474;-78
2021/07/14 10:44:59;;;;;;;1.33;0.90;;;;;;;17.48;79.89;95502.16;5013009;28;20969;-78
2021/07/14 10:47:25;;;;;;;1.52;0.90;;;;;;;17.57;78.24;95505.69;4994574;28;20419;-78
2021/07/14 10:49:52;;;;;;;1.77;1.05;;;;;;;17.46;76.29;95498.84;5012822;28;20440;-78
2021/07/14 10:52:18;;;;;;;1.85;1.00;;;;;;;17.53;78.54;95502.53;5012259;28;20429;-78
2021/07/14 10:54:45;;;;;;;1.10;0.73;;;;;;;17.71;78.30;95502.59;5013426;28;20408;-78
2021/07/14 10:57:10;;;;;;;2.30;0.82;;;;;;;17.93;78.76;95509.25;5011317;28;20421;-78
2021/07/14 10:59:36;;;;;;;1.38;0.80;;;;;;;17.86;75.80;95497.69;5012065;28;20483;-80
2021/07/14 11:02:02;;;;;;;1.98;0.90;;;;;;;17.87;77.96;95492.31;5013927;28;20425;-77
2021/07/14 11:04:54;;;;;;;1.70;1.00;;;;;;;18.01;76.05;95500.63;5015425;28;20456;-78
2021/07/14 11:07:38;;;;;;;2.13;0.80;;;;;;;17.90;75.48;95494.63;5014722;28;20416;-77
2021/07/14 11:10:23;;;;;;;0.77;0.70;;;;;;;18.01;77.06;95490.97;5005395;28;20427;-79
2021/07/14 11:12:49;;;;;;;1.10;0.80;;;;;;;17.96;74.92;95495.84;5008087;28;20408;-79
2021/07/14 11:15:28;;;;;;;2.28;0.77;;;;;;;17.94;74.29;95495.16;5011501;28;20447;-79
2021/07/14 11:17:53;;;;;;;2.03;0.90;;;;;;;17.90;75.33;95506.91;5011538;28;20443;-80
2021/07/14 11:20:20;;;;;;;2.78;1.20;;;;;;;17.93;75.42;95498.75;5011987;28;20949;-80
2021/07/14 11:22:53;;;;;;;1.05;0.80;;;;;;;17.87;75.64;95499.34;5015225;28;20417;-80
2021/07/14 11:25:23;;;;;;;1.23;0.75;;;;;;;17.92;73.92;95491.06;5011759;28;20790;-79
2021/07/14 11:27:50;;;;;;;2.00;1.00;;;;;;;17.99;73.65;95495.56;5011532;28;20425;-80
2021/07/14 11:30:40;;;;;;;0.85;0.70;;;;;;;17.94;73.26;95494.34;5011128;28;20416;-77
2021/07/14 11:33:07;;;;;;;1.10;0.70;;;;;;;17.98;74.58;95499.13;5003960;28;20535;-77
2021/07/14 11:35:38;;;;;;;1.15;0.75;;;;;;;18.03;75.28;95496.09;5011047;28;20864;-76
2021/07/14 11:38:04;;;;;;;1.50;0.95;;;;;;;18.06;74.77;95495.78;5011998;28;20910;-78
2021/07/14 11:40:40;;;;;;;2.03;1.02;;;;;;;18.34;74.92;95484.25;5012696;28;20416;-77
2021/07/14 11:43:27;;;;;;;1.90;1.00;;;;;;;18.49;74.78;95495.00;5011451;28;20421;-77
2021/07/14 11:45:55;;;;;;;2.08;0.85;;;;;;;18.40;72.36;95498.56;5012016;28;20421;-78